sensor_id;sensor_type;location;lat;lon;timestamp;temperature;humidity
38604;DHT22;24924;50.054;8.790;2023-07-31T00:01:36;19.10;99.90
38604;DHT22;24924;50.054;8.790;2023-07-31T00:04:02;18.70;99.90
38604;DHT22;24924;50.054;8.790;2023-07-31T00:13:46;18.80;99.90
38604;DHT22;24924;50.054;8.790;2023-07-31T00:18:38;17.20;99.90
38604;DHT22;24924;50.054;8.790;2023-07-31T00:21:04;17.10;99.90
38604;DHT22;24924;50.054;8.790;2023-07-31T00:25:56;17.50;99.90
38604;DHT22;24924;50.054;8.790;2023-07-31T00:30:48;19.70;99.90
38604;DHT22;24924;50.054;8.790;2023-07-31T00:33:14;18.80;99.90
38604;DHT22;24924;50.054;8.790;2023-07-31T00:35:40;20.10;99.90
38604;DHT22;24924;50.054;8.790;2023-07-31T00:38:06;19.00;99.90
38604;DHT22;24924;50.054;8.790;2023-07-31T00:40:36;19.00;99.90
38604;DHT22;24924;50.054;8.790;2023-07-31T00:43:06;20.20;99.90
38604;DHT22;24924;50.054;8.790;2023-07-31T00:45:36;19.00;99.90
38604;DHT22;24924;50.054;8.790;2023-07-31T00:48:02;19.40;99.90
38604;DHT22;24924;50.054;8.790;2023-07-31T00:52:54;19.10;99.90
38604;DHT22;24924;50.054;8.790;2023-07-31T00:55:21;19.20;99.90
38604;DHT22;24924;50.054;8.790;2023-07-31T00:57:48;18.90;99.90
38604;DHT22;24924;50.054;8.790;2023-07-31T01:00:14;19.40;99.90
38604;DHT22;24924;50.054;8.790;2023-07-31T01:02:40;19.30;99.90
38604;DHT22;24924;50.054;8.790;2023-07-31T01:05:06;17.60;99.90
38604;DHT22;24924;50.054;8.790;2023-07-31T01:07:45;19.40;99.90
38604;DHT22;24924;50.054;8.790;2023-07-31T01:10:23;20.00;99.90
38604;DHT22;24924;50.054;8.790;2023-07-31T01:12:51;19.30;99.90
38604;DHT22;24924;50.054;8.790;2023-07-31T01:15:19;19.90;99.90
38604;DHT22;24924;50.054;8.790;2023-07-31T01:17:45;19.40;99.90
38604;DHT22;24924;50.054;8.790;2023-07-31T01:20:18;19.00;99.90
38604;DHT22;24924;50.054;8.790;2023-07-31T01:28:13;19.40;99.90
38604;DHT22;24924;50.054;8.790;2023-07-31T01:30:43;19.00;99.90
38604;DHT22;24924;50.054;8.790;2023-07-31T01:33:10;19.00;99.90
38604;DHT22;24924;50.054;8.790;2023-07-31T01:35:37;19.40;99.90
38604;DHT22;24924;50.054;8.790;2023-07-31T01:38:04;17.60;99.90
38604;DHT22;24924;50.054;8.790;2023-07-31T01:40:30;19.10;99.90
38604;DHT22;24924;50.054;8.790;2023-07-31T01:45:22;17.40;99.90
38604;DHT22;24924;50.054;8.790;2023-07-31T01:50:14;19.30;99.90
38604;DHT22;24924;50.054;8.790;2023-07-31T01:52:40;19.40;99.90
38604;DHT22;24924;50.054;8.790;2023-07-31T01:55:08;19.10;99.90
38604;DHT22;24924;50.054;8.790;2023-07-31T01:57:34;17.90;99.90
38604;DHT22;24924;50.054;8.790;2023-07-31T02:02:26;19.00;99.90
38604;DHT22;24924;50.054;8.790;2023-07-31T02:04:52;19.60;99.90
38604;DHT22;24924;50.054;8.790;2023-07-31T02:09:44;17.70;99.90
38604;DHT22;24924;50.054;8.790;2023-07-31T02:17:03;18.90;99.90
38604;DHT22;24924;50.054;8.790;2023-07-31T02:19:29;19.20;99.90
38604;DHT22;24924;50.054;8.790;2023-07-31T02:24:22;19.20;99.90
38604;DHT22;24924;50.054;8.790;2023-07-31T02:29:13;18.90;99.90
38604;DHT22;24924;50.054;8.790;2023-07-31T02:31:39;18.90;99.90
38604;DHT22;24924;50.054;8.790;2023-07-31T02:36:31;18.90;99.90
38604;DHT22;24924;50.054;8.790;2023-07-31T02:38:57;19.20;99.90
38604;DHT22;24924;50.054;8.790;2023-07-31T02:43:49;19.10;99.90
38604;DHT22;24924;50.054;8.790;2023-07-31T02:53:34;18.70;99.90
38604;DHT22;24924;50.054;8.790;2023-07-31T03:03:18;19.20;99.90
38604;DHT22;24924;50.054;8.790;2023-07-31T03:08:10;18.90;99.90
38604;DHT22;24924;50.054;8.790;2023-07-31T03:10:36;19.10;99.90
38604;DHT22;24924;50.054;8.790;2023-07-31T03:13:03;19.10;99.90
38604;DHT22;24924;50.054;8.790;2023-07-31T03:15:29;19.70;99.90
38604;DHT22;24924;50.054;8.790;2023-07-31T03:25:14;16.80;99.90
38604;DHT22;24924;50.054;8.790;2023-07-31T03:27:40;18.60;99.90
38604;DHT22;24924;50.054;8.790;2023-07-31T03:30:06;17.90;99.90
38604;DHT22;24924;50.054;8.790;2023-07-31T03:32:32;17.90;99.90
38604;DHT22;24924;50.054;8.790;2023-07-31T03:34:58;18.70;99.90
38604;DHT22;24924;50.054;8.790;2023-07-31T03:37:24;18.00;99.90
38604;DHT22;24924;50.054;8.790;2023-07-31T03:39:50;18.20;99.90
38604;DHT22;24924;50.054;8.790;2023-07-31T03:42:16;18.30;99.90
38604;DHT22;24924;50.054;8.790;2023-07-31T03:47:09;18.00;99.90
38604;DHT22;24924;50.054;8.790;2023-07-31T03:49:37;16.40;99.90
38604;DHT22;24924;50.054;8.790;2023-07-31T03:52:03;18.00;99.90
38604;DHT22;24924;50.054;8.790;2023-07-31T03:54:28;18.00;99.90
38604;DHT22;24924;50.054;8.790;2023-07-31T03:56:54;17.80;99.90
38604;DHT22;24924;50.054;8.790;2023-07-31T04:04:13;18.20;99.90
38604;DHT22;24924;50.054;8.790;2023-07-31T04:06:39;17.90;99.90
38604;DHT22;24924;50.054;8.790;2023-07-31T04:13:57;18.30;99.90
38604;DHT22;24924;50.054;8.790;2023-07-31T04:16:23;17.60;99.90
38604;DHT22;24924;50.054;8.790;2023-07-31T04:18:49;17.90;99.90
38604;DHT22;24924;50.054;8.790;2023-07-31T04:28:33;17.70;99.90
38604;DHT22;24924;50.054;8.790;2023-07-31T04:33:25;17.60;99.90
38604;DHT22;24924;50.054;8.790;2023-07-31T04:35:52;17.00;99.90
38604;DHT22;24924;50.054;8.790;2023-07-31T04:38:19;18.20;99.90
38604;DHT22;24924;50.054;8.790;2023-07-31T04:43:12;18.10;99.90
38604;DHT22;24924;50.054;8.790;2023-07-31T04:48:04;18.30;99.90
38604;DHT22;24924;50.054;8.790;2023-07-31T04:50:30;16.80;99.90
38604;DHT22;24924;50.054;8.790;2023-07-31T04:52:56;18.10;99.90
38604;DHT22;24924;50.054;8.790;2023-07-31T04:57:48;18.10;99.90
38604;DHT22;24924;50.054;8.790;2023-07-31T05:05:07;17.00;99.90
38604;DHT22;24924;50.054;8.790;2023-07-31T05:10:00;17.30;99.90
38604;DHT22;24924;50.054;8.790;2023-07-31T05:12:25;18.40;99.90
38604;DHT22;24924;50.054;8.790;2023-07-31T05:22:10;18.00;99.90
38604;DHT22;24924;50.054;8.790;2023-07-31T05:24:36;17.70;99.90
38604;DHT22;24924;50.054;8.790;2023-07-31T05:29:28;18.10;99.90
38604;DHT22;24924;50.054;8.790;2023-07-31T05:31:54;18.00;99.90
38604;DHT22;24924;50.054;8.790;2023-07-31T05:34:20;18.40;99.90
38604;DHT22;24924;50.054;8.790;2023-07-31T05:36:45;18.50;99.90
38604;DHT22;24924;50.054;8.790;2023-07-31T05:39:11;18.30;99.90
38604;DHT22;24924;50.054;8.790;2023-07-31T05:41:37;18.10;99.90
38604;DHT22;24924;50.054;8.790;2023-07-31T05:44:03;17.50;99.90
38604;DHT22;24924;50.054;8.790;2023-07-31T05:46:29;18.20;99.90
38604;DHT22;24924;50.054;8.790;2023-07-31T05:51:23;18.50;99.90
38604;DHT22;24924;50.054;8.790;2023-07-31T05:56:15;18.60;99.90
38604;DHT22;24924;50.054;8.790;2023-07-31T06:03:33;18.50;99.90
38604;DHT22;24924;50.054;8.790;2023-07-31T06:08:25;18.30;99.90
38604;DHT22;24924;50.054;8.790;2023-07-31T06:13:17;18.60;99.90
38604;DHT22;24924;50.054;8.790;2023-07-31T06:15:43;18.40;99.90
38604;DHT22;24924;50.054;8.790;2023-07-31T06:18:09;18.80;99.90
38604;DHT22;24924;50.054;8.790;2023-07-31T06:20:36;19.20;99.90
38604;DHT22;24924;50.054;8.790;2023-07-31T06:23:02;18.60;99.90
38604;DHT22;24924;50.054;8.790;2023-07-31T06:25:29;17.70;99.90
38604;DHT22;24924;50.054;8.790;2023-07-31T06:30:21;17.00;99.90
38604;DHT22;24924;50.054;8.790;2023-07-31T06:35:13;19.60;99.90
38604;DHT22;24924;50.054;8.790;2023-07-31T06:40:06;19.00;99.90
38604;DHT22;24924;50.054;8.790;2023-07-31T06:42:34;18.70;99.90
38604;DHT22;24924;50.054;8.790;2023-07-31T06:45:01;19.10;99.90
38604;DHT22;24924;50.054;8.790;2023-07-31T06:49:53;18.70;99.90
38604;DHT22;24924;50.054;8.790;2023-07-31T06:55:04;18.90;99.90
38604;DHT22;24924;50.054;8.790;2023-07-31T07:02:22;19.10;99.90
38604;DHT22;24924;50.054;8.790;2023-07-31T07:04:49;17.20;99.90
38604;DHT22;24924;50.054;8.790;2023-07-31T07:07:15;19.50;99.90
38604;DHT22;24924;50.054;8.790;2023-07-31T07:09:41;19.30;99.90
38604;DHT22;24924;50.054;8.790;2023-07-31T07:12:07;19.50;99.90
38604;DHT22;24924;50.054;8.790;2023-07-31T07:14:33;19.40;99.90
38604;DHT22;24924;50.054;8.790;2023-07-31T07:19:25;19.40;99.90
38604;DHT22;24924;50.054;8.790;2023-07-31T07:21:51;19.30;99.90
38604;DHT22;24924;50.054;8.790;2023-07-31T07:24:17;19.40;99.90
38604;DHT22;24924;50.054;8.790;2023-07-31T07:26:42;19.30;99.90
38604;DHT22;24924;50.054;8.790;2023-07-31T07:31:37;19.90;99.90
38604;DHT22;24924;50.054;8.790;2023-07-31T07:34:03;19.40;99.90
38604;DHT22;24924;50.054;8.790;2023-07-31T07:38:55;18.40;99.90
38604;DHT22;24924;50.054;8.790;2023-07-31T07:43:48;20.50;99.90
38604;DHT22;24924;50.054;8.790;2023-07-31T07:46:14;19.10;99.90
38604;DHT22;24924;50.054;8.790;2023-07-31T07:51:06;20.30;99.90
38604;DHT22;24924;50.054;8.790;2023-07-31T07:58:24;19.90;99.90
38604;DHT22;24924;50.054;8.790;2023-07-31T08:00:53;20.30;99.90
38604;DHT22;24924;50.054;8.790;2023-07-31T08:03:19;20.80;99.90
38604;DHT22;24924;50.054;8.790;2023-07-31T08:05:45;20.40;99.90
38604;DHT22;24924;50.054;8.790;2023-07-31T08:08:14;21.20;99.90
38604;DHT22;24924;50.054;8.790;2023-07-31T08:10:42;19.30;99.90
38604;DHT22;24924;50.054;8.790;2023-07-31T08:13:09;20.40;99.90
38604;DHT22;24924;50.054;8.790;2023-07-31T08:15:35;19.60;99.90
38604;DHT22;24924;50.054;8.790;2023-07-31T08:25:19;18.40;99.90
38604;DHT22;24924;50.054;8.790;2023-07-31T08:27:44;20.20;99.90
38604;DHT22;24924;50.054;8.790;2023-07-31T08:30:11;20.00;99.90
38604;DHT22;24924;50.054;8.790;2023-07-31T08:32:37;20.20;99.90
38604;DHT22;24924;50.054;8.790;2023-07-31T08:35:04;19.90;99.90
38604;DHT22;24924;50.054;8.790;2023-07-31T08:37:29;20.30;99.90
38604;DHT22;24924;50.054;8.790;2023-07-31T08:39:55;19.90;99.90
38604;DHT22;24924;50.054;8.790;2023-07-31T08:42:21;20.40;99.90
38604;DHT22;24924;50.054;8.790;2023-07-31T08:47:13;21.00;99.90
38604;DHT22;24924;50.054;8.790;2023-07-31T08:49:41;20.50;99.90
38604;DHT22;24924;50.054;8.790;2023-07-31T08:57:00;20.80;99.90
38604;DHT22;24924;50.054;8.790;2023-07-31T08:59:29;20.80;99.90
38604;DHT22;24924;50.054;8.790;2023-07-31T09:01:57;20.30;99.90
38604;DHT22;24924;50.054;8.790;2023-07-31T09:04:25;20.70;99.90
38604;DHT22;24924;50.054;8.790;2023-07-31T09:06:58;20.80;99.90
38604;DHT22;24924;50.054;8.790;2023-07-31T09:09:25;21.10;99.90
38604;DHT22;24924;50.054;8.790;2023-07-31T09:11:52;21.10;99.90
38604;DHT22;24924;50.054;8.790;2023-07-31T09:14:18;21.30;99.90
38604;DHT22;24924;50.054;8.790;2023-07-31T09:16:56;21.10;99.90
38604;DHT22;24924;50.054;8.790;2023-07-31T09:19:31;21.00;99.90
38604;DHT22;24924;50.054;8.790;2023-07-31T09:21:58;20.80;99.90
38604;DHT22;24924;50.054;8.790;2023-07-31T09:24:26;20.80;99.90
38604;DHT22;24924;50.054;8.790;2023-07-31T09:26:54;20.90;99.90
38604;DHT22;24924;50.054;8.790;2023-07-31T09:31:47;20.80;99.90
38604;DHT22;24924;50.054;8.790;2023-07-31T09:36:41;20.90;99.90
38604;DHT22;24924;50.054;8.790;2023-07-31T09:39:10;21.10;99.90
38604;DHT22;24924;50.054;8.790;2023-07-31T09:41:42;21.70;99.90
38604;DHT22;24924;50.054;8.790;2023-07-31T09:44:08;21.10;99.90
38604;DHT22;24924;50.054;8.790;2023-07-31T09:46:37;21.20;99.90
38604;DHT22;24924;50.054;8.790;2023-07-31T09:49:10;21.20;99.90
38604;DHT22;24924;50.054;8.790;2023-07-31T09:51:38;21.40;99.90
38604;DHT22;24924;50.054;8.790;2023-07-31T09:54:12;20.70;99.90
38604;DHT22;24924;50.054;8.790;2023-07-31T09:56:44;20.50;99.90
38604;DHT22;24924;50.054;8.790;2023-07-31T09:59:15;21.20;99.90
38604;DHT22;24924;50.054;8.790;2023-07-31T10:01:42;21.30;99.90
38604;DHT22;24924;50.054;8.790;2023-07-31T10:04:09;21.50;99.90
38604;DHT22;24924;50.054;8.790;2023-07-31T10:06:37;21.40;99.90
38604;DHT22;24924;50.054;8.790;2023-07-31T10:09:08;21.20;99.90
38604;DHT22;24924;50.054;8.790;2023-07-31T10:11:41;21.40;99.90
38604;DHT22;24924;50.054;8.790;2023-07-31T10:14:10;21.60;99.90
38604;DHT22;24924;50.054;8.790;2023-07-31T10:16:37;22.00;99.90
38604;DHT22;24924;50.054;8.790;2023-07-31T10:19:03;21.90;99.90
38604;DHT22;24924;50.054;8.790;2023-07-31T10:21:31;22.20;99.90
38604;DHT22;24924;50.054;8.790;2023-07-31T10:24:03;21.80;99.90
38604;DHT22;24924;50.054;8.790;2023-07-31T10:26:29;21.80;99.90
38604;DHT22;24924;50.054;8.790;2023-07-31T10:28:57;21.80;99.90
38604;DHT22;24924;50.054;8.790;2023-07-31T10:31:23;21.90;99.90
38604;DHT22;24924;50.054;8.790;2023-07-31T10:33:53;21.70;99.90
38604;DHT22;24924;50.054;8.790;2023-07-31T10:36:20;22.30;99.90
38604;DHT22;24924;50.054;8.790;2023-07-31T10:38:49;21.30;99.90
38604;DHT22;24924;50.054;8.790;2023-07-31T10:43:41;22.10;99.90
38604;DHT22;24924;50.054;8.790;2023-07-31T10:46:08;22.10;99.90
38604;DHT22;24924;50.054;8.790;2023-07-31T10:48:35;22.20;99.90
38604;DHT22;24924;50.054;8.790;2023-07-31T10:51:07;23.60;99.90
38604;DHT22;24924;50.054;8.790;2023-07-31T10:56:08;22.40;99.90
38604;DHT22;24924;50.054;8.790;2023-07-31T10:58:36;23.30;99.90
38604;DHT22;24924;50.054;8.790;2023-07-31T11:01:05;22.90;99.90
38604;DHT22;24924;50.054;8.790;2023-07-31T11:03:50;22.90;99.90
38604;DHT22;24924;50.054;8.790;2023-07-31T11:06:18;22.50;99.90
38604;DHT22;24924;50.054;8.790;2023-07-31T11:08:50;22.40;99.90
38604;DHT22;24924;50.054;8.790;2023-07-31T11:11:18;23.00;99.90
38604;DHT22;24924;50.054;8.790;2023-07-31T11:13:49;22.60;99.90
38604;DHT22;24924;50.054;8.790;2023-07-31T11:16:16;22.30;99.90
38604;DHT22;24924;50.054;8.790;2023-07-31T11:18:44;22.40;99.90
38604;DHT22;24924;50.054;8.790;2023-07-31T11:21:21;23.30;99.90
38604;DHT22;24924;50.054;8.790;2023-07-31T11:23:53;23.20;99.90
38604;DHT22;24924;50.054;8.790;2023-07-31T11:26:19;21.40;99.90
38604;DHT22;24924;50.054;8.790;2023-07-31T11:28:48;21.40;99.90
38604;DHT22;24924;50.054;8.790;2023-07-31T11:31:14;21.80;99.90
38604;DHT22;24924;50.054;8.790;2023-07-31T11:33:40;23.00;99.90
38604;DHT22;24924;50.054;8.790;2023-07-31T11:36:05;22.40;99.90
38604;DHT22;24924;50.054;8.790;2023-07-31T11:38:32;22.30;99.90
38604;DHT22;24924;50.054;8.790;2023-07-31T11:41:00;21.30;99.90
38604;DHT22;24924;50.054;8.790;2023-07-31T11:43:28;22.40;99.90
38604;DHT22;24924;50.054;8.790;2023-07-31T11:45:55;22.40;99.90
38604;DHT22;24924;50.054;8.790;2023-07-31T11:48:29;22.60;99.90
38604;DHT22;24924;50.054;8.790;2023-07-31T11:51:00;22.50;99.90
38604;DHT22;24924;50.054;8.790;2023-07-31T11:53:43;21.80;99.90
38604;DHT22;24924;50.054;8.790;2023-07-31T11:56:11;22.30;99.90
38604;DHT22;24924;50.054;8.790;2023-07-31T11:58:38;22.00;99.90
38604;DHT22;24924;50.054;8.790;2023-07-31T12:01:05;22.30;99.90
38604;DHT22;24924;50.054;8.790;2023-07-31T12:03:31;22.60;99.90
38604;DHT22;24924;50.054;8.790;2023-07-31T12:05:58;22.20;99.90
38604;DHT22;24924;50.054;8.790;2023-07-31T12:08:25;22.40;99.90
38604;DHT22;24924;50.054;8.790;2023-07-31T12:10:52;22.50;99.90
38604;DHT22;24924;50.054;8.790;2023-07-31T12:13:25;22.50;99.90
38604;DHT22;24924;50.054;8.790;2023-07-31T12:15:56;22.50;99.90
38604;DHT22;24924;50.054;8.790;2023-07-31T12:18:26;22.20;99.90
38604;DHT22;24924;50.054;8.790;2023-07-31T12:20:58;22.10;99.90
38604;DHT22;24924;50.054;8.790;2023-07-31T12:23:29;22.70;99.90
38604;DHT22;24924;50.054;8.790;2023-07-31T12:26:17;22.80;99.90
38604;DHT22;24924;50.054;8.790;2023-07-31T12:28:48;21.90;99.90
38604;DHT22;24924;50.054;8.790;2023-07-31T12:31:18;22.20;99.90
38604;DHT22;24924;50.054;8.790;2023-07-31T12:33:46;22.40;99.90
38604;DHT22;24924;50.054;8.790;2023-07-31T12:36:14;22.70;99.90
38604;DHT22;24924;50.054;8.790;2023-07-31T12:41:06;22.20;99.90
38604;DHT22;24924;50.054;8.790;2023-07-31T12:43:33;22.20;99.90
38604;DHT22;24924;50.054;8.790;2023-07-31T12:45:59;22.90;99.90
38604;DHT22;24924;50.054;8.790;2023-07-31T12:48:25;22.30;99.90
38604;DHT22;24924;50.054;8.790;2023-07-31T12:50:51;22.00;99.90
38604;DHT22;24924;50.054;8.790;2023-07-31T12:53:16;22.10;99.90
38604;DHT22;24924;50.054;8.790;2023-07-31T12:55:42;22.30;99.90
38604;DHT22;24924;50.054;8.790;2023-07-31T12:58:08;22.10;99.90
38604;DHT22;24924;50.054;8.790;2023-07-31T13:03:00;22.20;99.90
38604;DHT22;24924;50.054;8.790;2023-07-31T13:05:27;22.40;99.90
38604;DHT22;24924;50.054;8.790;2023-07-31T13:07:53;22.80;99.90
38604;DHT22;24924;50.054;8.790;2023-07-31T13:12:45;23.70;99.90
38604;DHT22;24924;50.054;8.790;2023-07-31T13:15:12;23.10;99.90
38604;DHT22;24924;50.054;8.790;2023-07-31T13:17:38;23.40;99.90
38604;DHT22;24924;50.054;8.790;2023-07-31T13:20:04;23.60;99.90
38604;DHT22;24924;50.054;8.790;2023-07-31T13:22:30;23.60;99.90
38604;DHT22;24924;50.054;8.790;2023-07-31T13:24:56;24.00;99.90
38604;DHT22;24924;50.054;8.790;2023-07-31T13:27:22;23.70;99.90
38604;DHT22;24924;50.054;8.790;2023-07-31T13:29:48;23.80;99.90
38604;DHT22;24924;50.054;8.790;2023-07-31T13:32:15;23.60;99.90
38604;DHT22;24924;50.054;8.790;2023-07-31T13:34:41;22.60;99.90
38604;DHT22;24924;50.054;8.790;2023-07-31T13:37:07;23.40;99.90
38604;DHT22;24924;50.054;8.790;2023-07-31T13:39:33;24.00;99.90
38604;DHT22;24924;50.054;8.790;2023-07-31T13:44:26;23.60;99.90
38604;DHT22;24924;50.054;8.790;2023-07-31T13:46:52;23.40;99.90
38604;DHT22;24924;50.054;8.790;2023-07-31T13:49:17;23.50;99.90
38604;DHT22;24924;50.054;8.790;2023-07-31T13:51:43;23.90;99.90
38604;DHT22;24924;50.054;8.790;2023-07-31T13:54:09;23.70;99.90
38604;DHT22;24924;50.054;8.790;2023-07-31T13:56:37;24.00;99.90
38604;DHT22;24924;50.054;8.790;2023-07-31T13:59:02;23.50;99.90
38604;DHT22;24924;50.054;8.790;2023-07-31T14:03:54;23.40;99.90
38604;DHT22;24924;50.054;8.790;2023-07-31T14:06:20;23.60;99.90
38604;DHT22;24924;50.054;8.790;2023-07-31T14:08:46;23.10;99.90
38604;DHT22;24924;50.054;8.790;2023-07-31T14:11:12;22.10;99.90
38604;DHT22;24924;50.054;8.790;2023-07-31T14:13:37;23.10;99.90
38604;DHT22;24924;50.054;8.790;2023-07-31T14:16:03;23.00;99.90
38604;DHT22;24924;50.054;8.790;2023-07-31T14:20:55;23.00;99.90
38604;DHT22;24924;50.054;8.790;2023-07-31T14:23:21;23.10;99.90
38604;DHT22;24924;50.054;8.790;2023-07-31T14:25:47;22.50;99.90
38604;DHT22;24924;50.054;8.790;2023-07-31T14:28:13;22.30;99.90
38604;DHT22;24924;50.054;8.790;2023-07-31T14:30:39;23.00;99.90
38604;DHT22;24924;50.054;8.790;2023-07-31T14:33:05;23.50;99.90
38604;DHT22;24924;50.054;8.790;2023-07-31T14:35:31;22.90;99.90
38604;DHT22;24924;50.054;8.790;2023-07-31T14:37:57;22.70;99.90
38604;DHT22;24924;50.054;8.790;2023-07-31T14:40:22;22.90;99.90
38604;DHT22;24924;50.054;8.790;2023-07-31T14:45:14;22.70;99.90
38604;DHT22;24924;50.054;8.790;2023-07-31T14:47:40;22.50;99.90
38604;DHT22;24924;50.054;8.790;2023-07-31T14:50:06;22.40;99.90
38604;DHT22;24924;50.054;8.790;2023-07-31T14:52:32;22.30;99.90
38604;DHT22;24924;50.054;8.790;2023-07-31T14:54:58;22.30;99.90
38604;DHT22;24924;50.054;8.790;2023-07-31T14:57:24;22.30;99.90
38604;DHT22;24924;50.054;8.790;2023-07-31T14:59:49;22.40;99.90
38604;DHT22;24924;50.054;8.790;2023-07-31T15:02:15;22.70;99.90
38604;DHT22;24924;50.054;8.790;2023-07-31T15:04:41;22.30;99.90
38604;DHT22;24924;50.054;8.790;2023-07-31T15:07:07;22.30;99.90
38604;DHT22;24924;50.054;8.790;2023-07-31T15:09:33;21.50;99.90
38604;DHT22;24924;50.054;8.790;2023-07-31T15:11:59;22.00;99.90
38604;DHT22;24924;50.054;8.790;2023-07-31T15:14:25;22.30;99.90
38604;DHT22;24924;50.054;8.790;2023-07-31T15:16:53;21.20;99.90
38604;DHT22;24924;50.054;8.790;2023-07-31T15:19:18;21.20;99.90
38604;DHT22;24924;50.054;8.790;2023-07-31T15:21:44;22.60;99.90
38604;DHT22;24924;50.054;8.790;2023-07-31T15:24:10;20.90;99.90
38604;DHT22;24924;50.054;8.790;2023-07-31T15:26:37;22.80;99.90
38604;DHT22;24924;50.054;8.790;2023-07-31T15:29:05;21.90;99.90
38604;DHT22;24924;50.054;8.790;2023-07-31T15:31:35;21.80;99.90
38604;DHT22;24924;50.054;8.790;2023-07-31T15:36:27;21.70;99.90
38604;DHT22;24924;50.054;8.790;2023-07-31T15:38:52;21.50;99.90
38604;DHT22;24924;50.054;8.790;2023-07-31T15:43:45;20.90;99.90
38604;DHT22;24924;50.054;8.790;2023-07-31T15:46:11;21.20;99.90
38604;DHT22;24924;50.054;8.790;2023-07-31T15:48:37;21.80;99.90
38604;DHT22;24924;50.054;8.790;2023-07-31T15:53:30;21.60;99.90
38604;DHT22;24924;50.054;8.790;2023-07-31T15:55:56;21.20;99.90
38604;DHT22;24924;50.054;8.790;2023-07-31T15:58:22;21.70;99.90
38604;DHT22;24924;50.054;8.790;2023-07-31T16:00:48;21.60;99.90
38604;DHT22;24924;50.054;8.790;2023-07-31T16:03:14;21.60;99.90
38604;DHT22;24924;50.054;8.790;2023-07-31T16:05:40;21.50;99.90
38604;DHT22;24924;50.054;8.790;2023-07-31T16:08:07;20.20;99.90
38604;DHT22;24924;50.054;8.790;2023-07-31T16:10:33;21.60;99.90
38604;DHT22;24924;50.054;8.790;2023-07-31T16:12:59;21.70;99.90
38604;DHT22;24924;50.054;8.790;2023-07-31T16:15:25;22.10;99.90
38604;DHT22;24924;50.054;8.790;2023-07-31T16:17:51;21.80;99.90
38604;DHT22;24924;50.054;8.790;2023-07-31T16:20:17;21.30;99.90
38604;DHT22;24924;50.054;8.790;2023-07-31T16:22:42;21.50;99.90
38604;DHT22;24924;50.054;8.790;2023-07-31T16:25:11;21.50;99.90
38604;DHT22;24924;50.054;8.790;2023-07-31T16:27:37;21.80;99.90
38604;DHT22;24924;50.054;8.790;2023-07-31T16:30:03;21.60;99.90
38604;DHT22;24924;50.054;8.790;2023-07-31T16:32:29;21.80;99.90
38604;DHT22;24924;50.054;8.790;2023-07-31T16:34:55;20.20;99.90
38604;DHT22;24924;50.054;8.790;2023-07-31T16:37:21;20.40;99.90
38604;DHT22;24924;50.054;8.790;2023-07-31T16:39:47;20.30;99.90
38604;DHT22;24924;50.054;8.790;2023-07-31T16:42:17;21.60;99.90
38604;DHT22;24924;50.054;8.790;2023-07-31T16:44:43;21.80;99.90
38604;DHT22;24924;50.054;8.790;2023-07-31T16:47:09;22.20;99.90
38604;DHT22;24924;50.054;8.790;2023-07-31T16:49:34;21.40;99.90
38604;DHT22;24924;50.054;8.790;2023-07-31T16:52:00;21.60;99.90
38604;DHT22;24924;50.054;8.790;2023-07-31T16:54:26;22.10;99.90
38604;DHT22;24924;50.054;8.790;2023-07-31T16:59:18;21.90;99.90
38604;DHT22;24924;50.054;8.790;2023-07-31T17:01:45;20.00;99.90
38604;DHT22;24924;50.054;8.790;2023-07-31T17:04:11;21.40;99.90
38604;DHT22;24924;50.054;8.790;2023-07-31T17:06:37;20.30;99.90
38604;DHT22;24924;50.054;8.790;2023-07-31T17:09:02;20.90;99.90
38604;DHT22;24924;50.054;8.790;2023-07-31T17:13:54;21.40;99.90
38604;DHT22;24924;50.054;8.790;2023-07-31T17:18:47;20.50;99.90
38604;DHT22;24924;50.054;8.790;2023-07-31T17:23:38;19.90;99.90
38604;DHT22;24924;50.054;8.790;2023-07-31T17:26:04;19.50;99.90
38604;DHT22;24924;50.054;8.790;2023-07-31T17:28:31;20.60;99.90
38604;DHT22;24924;50.054;8.790;2023-07-31T17:30:58;20.60;99.90
38604;DHT22;24924;50.054;8.790;2023-07-31T17:33:24;20.70;99.90
38604;DHT22;24924;50.054;8.790;2023-07-31T17:35:50;20.30;99.90
38604;DHT22;24924;50.054;8.790;2023-07-31T17:38:16;20.60;99.90
38604;DHT22;24924;50.054;8.790;2023-07-31T17:40:42;20.10;99.90
38604;DHT22;24924;50.054;8.790;2023-07-31T17:45:35;19.60;99.90
38604;DHT22;24924;50.054;8.790;2023-07-31T17:48:01;19.80;99.90
38604;DHT22;24924;50.054;8.790;2023-07-31T17:50:27;19.80;99.90
38604;DHT22;24924;50.054;8.790;2023-07-31T17:55:19;19.70;99.90
38604;DHT22;24924;50.054;8.790;2023-07-31T18:00:11;22.00;99.90
38604;DHT22;24924;50.054;8.790;2023-07-31T18:05:05;19.30;99.90
38604;DHT22;24924;50.054;8.790;2023-07-31T18:09:57;17.50;99.90
38604;DHT22;24924;50.054;8.790;2023-07-31T18:12:23;18.60;99.90
38604;DHT22;24924;50.054;8.790;2023-07-31T18:17:15;19.80;99.90
38604;DHT22;24924;50.054;8.790;2023-07-31T18:24:34;19.20;99.90
38604;DHT22;24924;50.054;8.790;2023-07-31T18:29:26;19.30;99.90
38604;DHT22;24924;50.054;8.790;2023-07-31T18:31:51;18.90;99.90
38604;DHT22;24924;50.054;8.790;2023-07-31T18:44:04;18.00;99.90
38604;DHT22;24924;50.054;8.790;2023-07-31T18:46:30;19.10;99.90
38604;DHT22;24924;50.054;8.790;2023-07-31T18:48:56;17.70;99.90
38604;DHT22;24924;50.054;8.790;2023-07-31T18:53:48;18.10;99.90
38604;DHT22;24924;50.054;8.790;2023-07-31T18:56:14;19.40;99.90
38604;DHT22;24924;50.054;8.790;2023-07-31T18:58:40;19.50;99.90
38604;DHT22;24924;50.054;8.790;2023-07-31T19:01:06;19.50;99.90
38604;DHT22;24924;50.054;8.790;2023-07-31T19:03:32;18.00;99.90
38604;DHT22;24924;50.054;8.790;2023-07-31T19:06:02;19.10;99.90
38604;DHT22;24924;50.054;8.790;2023-07-31T19:08:29;19.10;99.90
38604;DHT22;24924;50.054;8.790;2023-07-31T19:13:21;19.20;99.90
38604;DHT22;24924;50.054;8.790;2023-07-31T19:15:46;19.80;99.90
38604;DHT22;24924;50.054;8.790;2023-07-31T19:18:14;19.70;99.90
38604;DHT22;24924;50.054;8.790;2023-07-31T19:23:07;19.20;99.90
38604;DHT22;24924;50.054;8.790;2023-07-31T19:25:33;19.10;99.90
38604;DHT22;24924;50.054;8.790;2023-07-31T19:27:59;19.20;99.90
38604;DHT22;24924;50.054;8.790;2023-07-31T19:30:25;19.50;99.90
38604;DHT22;24924;50.054;8.790;2023-07-31T19:32:52;17.70;99.90
38604;DHT22;24924;50.054;8.790;2023-07-31T19:37:44;17.80;99.90
38604;DHT22;24924;50.054;8.790;2023-07-31T19:40:10;19.50;99.90
38604;DHT22;24924;50.054;8.790;2023-07-31T19:42:36;19.60;99.90
38604;DHT22;24924;50.054;8.790;2023-07-31T19:45:05;19.30;99.90
38604;DHT22;24924;50.054;8.790;2023-07-31T19:47:31;17.50;99.90
38604;DHT22;24924;50.054;8.790;2023-07-31T19:49:57;19.20;99.90
38604;DHT22;24924;50.054;8.790;2023-07-31T19:52:24;19.10;99.90
38604;DHT22;24924;50.054;8.790;2023-07-31T19:54:50;19.10;99.90